Accueil
METAR-TAF:

METAR-TAF

Aéroports :

Aéroport international de Bergame-Orio al Serio (Le Caravage)

Bergame, Italie

latitude: 45-40N, longitude: 009-42E, altitude: 238 m

Observation

Le bulletin a été fait il y a 11 minutes, à 00:20 UTC
Vent 3 kt de nord/nord-est
Température 22°C
Humidité 73%
Pression 1019 hPa
Visibilité 10 km ou plus
Nuages épars à une hauteur de 6000 ft

METAR: LIME 210020Z 03003KT 9999 SCT060 22/17 Q1019 NOSIG

Heure: 02:31 (00:31 UTC)

Prévision

Le bulletin a été fait il y a 1 heure et 31 minutes, à 23:00 UTC
Prévision valable du 21 à 00 UTC au 21 à 24 UTC
Vent 6 kt de nord/nord-est
Visibilité 10 km ou plus
Nuages épars à une hauteur de 5000 ft

TAF: LIME 202300Z 2100/2124 03006KT 9999 SCT050

Observations et prévisions météorologiques de plus de 4000 aéroports (messages METAR et TAF).

Les stations disponibles sont représentées par des disques jaunes et rouges sur la carte.

Passer la souris dessus pour voir le nom de la station.

Cliquer dessus pour voir les observations et prévisions météorologiques.

Pour changer de carte: cliquez sur les boutons verts avec une croix noire pour zoomer, sur le bouton vert avec un tiret pour effectuer un zoom arrière, ou sur les flèches vertes pour les cartes adjacentes.


METAR-TAF: